Sao Pedro do Piaui, Brazil
Current Conditions -  °F | °C
As of 12:00 AM on Friday 19 Dec 2014 (Local Time) from SBTE Reporting Station
Broken Clouds Broken Clouds  
Wind Chill: 25°   Ceiling: 8000
Heat Index: 26°   Visibility: 6mi
Dew Point: 22°   Wind: 5mph
Humidity: 83%   Direction: 350°N
Pressure: 29.83"   Gusts: NA
Location:  5.93°S, 42.72°W
Report Text: SBTE 190300Z 35004KT 9999 SCT040 BKN080 25/22 Q1010
Loading
Personal Weather Stations






























Interactive Weather Map New forecast layout! Learn more

10-Day Weather Forecast

Advertisements
Track Severe Weather on mobile